createdAt,value
2023-04-03T00:01:13.681Z,-0.71
2023-04-03T00:06:16.996Z,-0.71
2023-04-03T00:11:21.019Z,-0.76
2023-04-03T00:16:24.046Z,-0.79
2023-04-03T00:21:27.258Z,-0.83
2023-04-03T00:26:30.631Z,-0.89
2023-04-03T00:31:33.705Z,-0.89
2023-04-03T00:36:36.865Z,-0.91
2023-04-03T00:41:39.884Z,-0.95
2023-04-03T00:46:42.932Z,-0.99
2023-04-03T00:51:46.630Z,-0.96
2023-04-03T00:56:52.906Z,-0.96
2023-04-03T01:01:56.663Z,-0.99
2023-04-03T01:07:07.411Z,-1.04
2023-04-03T01:12:17.589Z,-1.10
2023-04-03T01:17:38.836Z,-1.14
2023-04-03T01:22:58.406Z,-1.13
2023-04-03T01:28:01.628Z,-1.14
2023-04-03T01:33:04.752Z,-1.18
2023-04-03T01:38:08.151Z,-1.17
2023-04-03T01:43:11.259Z,-1.20
2023-04-03T01:48:14.678Z,-1.27
2023-04-03T01:53:17.683Z,-1.33
2023-04-03T01:58:20.585Z,-1.39
2023-04-03T02:03:23.638Z,-1.39
2023-04-03T02:08:26.496Z,-1.44
2023-04-03T02:13:29.400Z,-1.50
2023-04-03T02:18:34.455Z,-1.57
2023-04-03T02:23:38.178Z,-1.61
2023-04-03T02:28:42.222Z,-1.65
2023-04-03T02:33:45.311Z,-1.72
2023-04-03T02:38:49.451Z,-1.79
2023-04-03T02:43:52.584Z,-1.83
2023-04-03T02:48:56.174Z,-1.89
2023-04-03T02:53:59.184Z,-1.90
2023-04-03T02:59:02.294Z,-1.91
2023-04-03T03:04:05.817Z,-1.93
2023-04-03T03:09:08.940Z,-1.94
2023-04-03T03:14:12.030Z,-1.94
2023-04-03T03:19:15.042Z,-1.96
2023-04-03T03:24:18.245Z,-2.00
2023-04-03T03:29:21.462Z,-2.06
2023-04-03T03:34:24.669Z,-2.04
2023-04-03T03:39:27.986Z,-2.05
2023-04-03T03:44:31.100Z,-2.03
2023-04-03T03:49:34.008Z,-2.06
2023-04-03T03:54:37.104Z,-2.09
2023-04-03T03:59:43.038Z,-2.12
2023-04-03T04:04:47.222Z,-2.13
2023-04-03T04:09:50.433Z,-2.13
2023-04-03T04:14:53.431Z,-2.14
2023-04-03T04:19:56.542Z,-2.07
2023-04-03T04:24:59.654Z,-1.68
2023-04-03T04:30:03.581Z,-0.75
2023-04-03T04:35:06.916Z,0.22
2023-04-03T04:40:10.585Z,1.11
2023-04-03T04:45:13.628Z,2.01
2023-04-03T04:50:17.467Z,2.73
2023-04-03T04:55:20.661Z,3.13
2023-04-03T05:00:23.901Z,3.61
2023-04-03T05:05:27.089Z,4.23
2023-04-03T05:10:30.605Z,4.70
2023-04-03T05:15:33.716Z,4.96
2023-04-03T05:20:37.751Z,4.99
2023-04-03T05:25:41.666Z,5.15
2023-04-03T05:30:44.687Z,5.59
2023-04-03T05:35:47.804Z,5.82
2023-04-03T05:40:51.310Z,5.75
2023-04-03T05:45:54.525Z,5.87
2023-04-03T05:50:58.281Z,6.20
2023-04-03T05:56:01.954Z,6.31
2023-04-03T06:01:06.594Z,6.61
2023-04-03T06:06:15.262Z,7.02
2023-04-03T06:11:18.763Z,7.28
2023-04-03T06:16:22.353Z,7.01
2023-04-03T06:21:25.486Z,6.71
2023-04-03T06:26:29.584Z,6.77
2023-04-03T06:31:32.731Z,7.14
2023-04-03T06:36:36.255Z,6.91
2023-04-03T06:41:39.253Z,6.98
2023-04-03T06:46:42.832Z,6.79
2023-04-03T06:51:45.887Z,6.91
2023-04-03T06:56:49.594Z,6.57
2023-04-03T07:01:53.004Z,6.39
2023-04-03T07:06:56.139Z,6.38
2023-04-03T07:11:59.137Z,6.63
2023-04-03T07:17:02.155Z,6.57
2023-04-03T07:22:05.528Z,6.76
2023-04-03T07:27:09.696Z,6.59
2023-04-03T07:32:12.907Z,6.39
2023-04-03T07:37:16.020Z,6.24
2023-04-03T07:42:19.146Z,5.95
2023-04-03T07:47:22.510Z,5.74
2023-04-03T07:52:26.470Z,5.82
2023-04-03T07:57:29.615Z,5.96
2023-04-03T08:02:35.664Z,5.92
2023-04-03T08:07:39.598Z,6.25
2023-04-03T08:12:43.011Z,6.43
2023-04-03T08:17:46.738Z,6.55
2023-04-03T08:22:49.930Z,5.78
2023-04-03T08:27:53.156Z,5.34
2023-04-03T08:32:56.639Z,4.97
2023-04-03T08:37:59.776Z,5.08
2023-04-03T08:43:29.512Z,5.26
2023-04-03T08:48:37.804Z,4.72
2023-04-03T08:53:46.965Z,4.29
2023-04-03T08:59:10.801Z,3.96
2023-04-03T09:04:17.440Z,3.85
2023-04-03T09:09:34.348Z,3.92
2023-04-03T09:14:43.453Z,3.91
2023-04-03T09:20:21.283Z,3.94
2023-04-03T09:25:28.681Z,4.15
2023-04-03T09:30:32.616Z,4.33
2023-04-03T09:35:47.131Z,4.06
2023-04-03T09:41:03.938Z,3.76
2023-04-03T09:46:27.717Z,3.68
2023-04-03T09:51:32.290Z,3.90
2023-04-03T09:56:35.958Z,4.01
2023-04-03T10:01:42.785Z,3.82
2023-04-03T10:06:48.859Z,3.78
2023-04-03T10:12:13.367Z,3.95
2023-04-03T10:17:19.341Z,4.09
2023-04-03T10:22:57.367Z,4.29
2023-04-03T10:28:01.912Z,4.22
2023-04-03T10:33:16.279Z,4.05
2023-04-03T10:38:37.307Z,4.25
2023-04-03T10:43:46.157Z,4.37
2023-04-03T10:49:06.977Z,4.42
2023-04-03T10:54:27.809Z,4.56
2023-04-03T10:59:43.206Z,4.39
2023-04-03T11:04:53.388Z,4.47
2023-04-03T11:10:07.141Z,4.60
2023-04-03T11:15:17.748Z,4.90
2023-04-03T11:20:34.538Z,4.90
2023-04-03T11:25:40.137Z,4.74
2023-04-03T11:30:49.552Z,4.73
2023-04-03T11:35:56.993Z,4.81
2023-04-03T11:41:00.297Z,5.03
2023-04-03T11:46:07.690Z,4.90
2023-04-03T11:51:13.590Z,4.99
2023-04-03T11:56:27.138Z,5.06
2023-04-03T12:01:44.899Z,5.20
2023-04-03T12:06:48.100Z,4.84
2023-04-03T12:11:53.163Z,4.87
2023-04-03T12:16:59.124Z,5.26
2023-04-03T12:22:02.166Z,5.20
2023-04-03T12:27:26.302Z,5.45
2023-04-03T12:32:42.097Z,5.28
2023-04-03T12:38:03.964Z,5.01
2023-04-03T12:43:16.197Z,5.27
2023-04-03T12:48:26.288Z,5.35
2023-04-03T12:53:37.181Z,5.32
2023-04-03T12:58:40.246Z,4.94
2023-04-03T13:03:49.930Z,4.95
2023-04-03T13:08:55.646Z,5.19
2023-04-03T13:14:06.282Z,5.04
2023-04-03T13:19:18.300Z,4.89
2023-04-03T13:24:21.331Z,5.20
2023-04-03T13:29:31.816Z,5.25
2023-04-03T13:34:47.047Z,4.71
2023-04-03T13:45:34.001Z,4.47
2023-04-03T13:51:00.031Z,4.54
2023-04-03T13:56:19.329Z,4.40
2023-04-03T14:01:24.670Z,4.40
2023-04-03T14:06:29.910Z,4.30
2023-04-03T14:11:37.957Z,4.43
2023-04-03T14:16:46.113Z,4.26
2023-04-03T14:21:50.084Z,4.05
2023-04-03T14:26:55.603Z,4.22
2023-04-03T14:32:11.633Z,4.09
2023-04-03T14:37:24.123Z,3.91
2023-04-03T14:42:31.960Z,3.95
2023-04-03T14:47:42.133Z,3.92
2023-04-03T14:52:46.586Z,3.78
2023-04-03T14:57:50.030Z,3.61
2023-04-03T15:02:53.481Z,3.49
2023-04-03T15:07:58.557Z,3.50
2023-04-03T15:13:01.783Z,3.48
2023-04-03T15:18:05.921Z,3.40
2023-04-03T15:23:11.675Z,3.37
2023-04-03T15:28:29.433Z,3.34
2023-04-03T15:33:33.656Z,3.17
2023-04-03T15:38:39.275Z,3.00
2023-04-03T15:43:42.422Z,2.94
2023-04-03T15:48:46.082Z,2.85
2023-04-03T15:53:49.054Z,2.72
2023-04-03T15:58:52.053Z,2.58
2023-04-03T16:03:55.457Z,2.46
2023-04-03T16:08:59.154Z,2.41
2023-04-03T16:14:02.701Z,2.34
2023-04-03T16:19:06.526Z,2.19
2023-04-03T16:24:10.189Z,2.13
2023-04-03T16:29:13.681Z,2.13
2023-04-03T16:34:17.308Z,2.09
2023-04-03T16:39:20.616Z,2.00
2023-04-03T16:44:23.852Z,1.86
2023-04-03T16:49:29.182Z,1.74
2023-04-03T16:54:33.124Z,1.69
2023-04-03T16:59:36.331Z,1.67
2023-04-03T17:04:39.227Z,1.63
2023-04-03T17:09:42.347Z,1.58
2023-04-03T17:14:46.580Z,1.52
2023-04-03T17:19:50.198Z,1.39
2023-04-03T17:24:53.208Z,1.29
2023-04-03T17:29:56.339Z,1.22
2023-04-03T17:34:59.415Z,1.14
2023-04-03T17:40:03.050Z,1.03
2023-04-03T17:45:07.353Z,0.90
2023-04-03T17:50:11.488Z,0.73
2023-04-03T17:55:15.646Z,0.57
2023-04-03T18:00:19.275Z,0.40
2023-04-03T18:05:22.721Z,0.27
2023-04-03T18:10:26.017Z,0.15
2023-04-03T18:15:29.009Z,0.05
2023-04-03T18:20:32.121Z,-0.02
2023-04-03T18:25:37.176Z,-0.10
2023-04-03T18:30:42.720Z,-0.15
2023-04-03T18:35:45.837Z,-0.18
2023-04-03T18:40:50.278Z,-0.22
2023-04-03T18:45:53.597Z,-0.27
2023-04-03T18:50:56.808Z,-0.31
2023-04-03T18:55:59.808Z,-0.34
2023-04-03T19:01:03.432Z,-0.32
2023-04-03T19:06:07.363Z,-0.36
2023-04-03T19:11:11.393Z,-0.46
2023-04-03T19:16:14.780Z,-0.64
2023-04-03T19:21:18.630Z,-0.76
2023-04-03T19:26:22.201Z,-0.85
2023-04-03T19:31:25.480Z,-0.96
2023-04-03T19:36:28.775Z,-1.08
2023-04-03T19:41:35.172Z,-1.14
2023-04-03T19:46:38.295Z,-1.16
2023-04-03T19:51:41.789Z,-1.16
2023-04-03T19:56:45.732Z,-1.19
2023-04-03T20:01:48.866Z,-1.27
2023-04-03T20:06:52.451Z,-1.34
2023-04-03T20:11:56.787Z,-1.36
2023-04-03T20:17:00.020Z,-1.41
2023-04-03T20:22:03.427Z,-1.49
2023-04-03T20:27:07.672Z,-1.59
2023-04-03T20:32:12.192Z,-1.68
2023-04-03T20:37:20.208Z,-1.78
2023-04-03T20:42:23.118Z,-1.87
2023-04-03T20:47:26.521Z,-1.93
2023-04-03T20:52:29.786Z,-1.99
2023-04-03T20:57:35.827Z,-2.03
2023-04-03T21:02:38.844Z,-2.09
2023-04-03T21:08:19.521Z,-2.19
2023-04-03T21:14:01.355Z,-2.30
2023-04-03T21:19:20.546Z,-2.34
2023-04-03T21:24:23.841Z,-2.37
2023-04-03T21:29:27.055Z,-2.41
2023-04-03T21:34:31.406Z,-2.48
2023-04-03T21:39:35.001Z,-2.55
2023-04-03T21:44:38.428Z,-2.57
2023-04-03T21:49:41.844Z,-2.55
2023-04-03T21:54:45.158Z,-2.59
2023-04-03T21:59:48.328Z,-2.64
2023-04-03T22:04:51.523Z,-2.68
2023-04-03T22:09:54.586Z,-2.74
2023-04-03T22:14:57.604Z,-2.79
2023-04-03T22:20:01.104Z,-2.86
2023-04-03T22:25:04.599Z,-2.91
2023-04-03T22:30:08.312Z,-2.97
2023-04-03T22:35:11.257Z,-2.99
2023-04-03T22:40:14.571Z,-3.02
2023-04-03T22:45:17.474Z,-3.06
2023-04-03T22:50:20.373Z,-3.12
2023-04-03T22:55:24.611Z,-3.19
2023-04-03T23:00:28.336Z,-3.25
2023-04-03T23:05:31.410Z,-3.26
2023-04-03T23:10:34.343Z,-3.24
2023-04-03T23:15:37.248Z,-3.22
2023-04-03T23:20:40.500Z,-3.27
2023-04-03T23:25:43.671Z,-3.31
2023-04-03T23:30:47.259Z,-3.39
2023-04-03T23:35:50.203Z,-3.44
2023-04-03T23:40:53.409Z,-3.45
2023-04-03T23:45:56.598Z,-3.44
2023-04-03T23:50:59.732Z,-3.36
2023-04-03T23:56:02.848Z,-3.31
